• Join FlightAware (Why Join?)
  • Login
  • US Flag 
04:41PM EDT


 

Airport Tracker/Info


-or-


 

Live Flight TrackerFlight Track Log ✈ SWA2966 ✈ 21-Apr-2013 ✈ KOAK - KONT

Flight Track Log - Related Links

Times and Time Zones

All times are in EDT time to prevent confusion due to time zone crossing. See the SWA2966 flight status page for this flight to view local times or setup timezone preferences in your user account.

Time Position Orientation Groundspeed Altitude Reporting Facility
EDT Latitude Longitude Course Direction KTS MPH feet Rate Location/Type
03:21PM 37.7267 -122.2528 290° West 169 194 1,300  Level Oakland Center
03:22PM 37.7475 -122.3247 290° West 248 285 4,200 2,880 Climbing Oakland Center
03:23PM 37.7194 -122.3867 240° Southwest 251 289 7,300 2,820 Climbing Oakland Center
03:23PM 37.6833 -122.4000 196° South 286 329 8,300 1,920 Climbing Northern Cal TRACON
03:24PM 37.6000 -122.4333 198° South 315 362 10,100 2,040 Climbing Northern Cal TRACON
03:25PM 37.5553 -122.4422 189° South 312 359 11,700 2,700 Climbing Oakland Center
03:26PM 37.4683 -122.4561 187° South 326 375 14,600 2,880 Climbing Oakland Center
03:27PM 37.4078 -122.3583 128° Southeast 361 415 17,700 3,180 Climbing Oakland Center
03:28PM 37.3278 -122.2303 128° Southeast 387 445 21,200 3,180 Climbing Oakland Center
03:29PM 37.2586 -122.1161 127° Southeast 407 468 24,300 2,520 Climbing Oakland Center
03:30PM 37.1881 -122.0006 127° Southeast 417 480 26,400 1,980 Climbing Oakland Center
03:31PM 37.1122 -121.8767 127° Southeast 445 512 28,500 1,980 Climbing Oakland Center
03:32PM 37.0331 -121.7536 129° Southeast 455 524 30,500 2,040 Climbing Oakland Center
03:33PM 36.9528 -121.6239 128° Southeast 469 540 32,700 2,280 Climbing Oakland Center
03:34PM 36.8778 -121.4975 127° Southeast 457 526 35,200 2,040 Climbing Oakland Center
03:35PM 36.7933 -121.3617 128° Southeast 452 520 36,900 1,440 Climbing Oakland Center
03:36PM 36.7153 -121.2392 128° Southeast 452 520 38,200 960 Climbing Oakland Center
03:37PM 36.6364 -121.1128 128° Southeast 460 529 38,900 360 Climbing Oakland Center
03:38PM 36.5561 -120.9856 128° Southeast 468 539 39,000  Climbing Oakland Center
03:39PM 36.4606 -120.8317 128° Southeast 467 537 39,000  Level Oakland Center
03:40PM 36.3808 -120.7058 128° Southeast 466 536 39,000  Level Oakland Center
03:41PM 36.3003 -120.5789 128° Southeast 465 535 39,000  Level Oakland Center
03:42PM 36.2178 -120.4519 129° Southeast 474 545 39,000  Level Oakland Center
03:43PM 36.1361 -120.3228 128° Southeast 474 545 39,000  Level Oakland Center
03:44PM 36.0533 -120.1947 129° Southeast 475 547 39,000  Level Oakland Center
03:45PM 35.9725 -120.0728 129° Southeast 459 528 39,000  Level Oakland Center
03:46PM 35.8911 -119.9456 128° Southeast 465 535 39,000  Level Oakland Center
03:47PM 35.8078 -119.8194 129° Southeast 470 541 39,000  Level Oakland Center
03:48PM 35.7253 -119.6944 129° Southeast 468 539 39,000  Level Oakland Center
03:50PM 35.6247 -119.5411 129° Southeast 475 547 39,000  Level Oakland Center
03:51PM 35.5422 -119.4161 129° Southeast 472 543 39,000  Level Oakland Center
03:51PM 35.5106 -119.3667 128° Southeast 470 541 39,000  Level Los Angeles Center
03:52PM 35.4283 -119.2406 129° Southeast 471 542 39,000  Level Los Angeles Center
03:53PM 35.3444 -119.1147 129° Southeast 473 544 39,000  Level Los Angeles Center
03:54PM 35.2439 -118.9642 129° Southeast 475 547 39,000 -660 Level Los Angeles Center
03:55PM 35.1603 -118.8394 129° Southeast 474 545 37,700 -2,040 Descending Los Angeles Center
03:56PM 35.0769 -118.7172 130° Southeast 469 540 34,800 -2,940 Descending Los Angeles Center
03:57PM 34.9944 -118.5953 130° Southeast 467 537 31,700 -2,760 Descending Los Angeles Center
03:58PM 34.9103 -118.4731 130° Southeast 468 539 29,100 -1,920 Descending Los Angeles Center
03:59PM 34.8317 -118.3561 129° Southeast 457 526 27,800 -1,440 Descending Los Angeles Center
04:00PM 34.7378 -118.2208 130° Southeast 444 511 26,200 -1,920 Descending Los Angeles Center
04:01PM 34.6611 -118.1092 130° Southeast 438 504 23,900 -2,160 Descending Los Angeles Center
04:02PM 34.5981 -117.9947 124° Southeast 412 474 21,700 -1,920 Descending Los Angeles Center
04:03PM 34.5447 -117.8772 119° Southeast 401 461 19,900 -2,040 Descending Los Angeles Center
04:05PM 34.4922 -117.7619 119° Southeast 394 453 17,500 -2,520 Descending Los Angeles Center
04:06PM 34.4292 -117.6272 120° Southeast 388 447 14,800 -1,740 Descending Los Angeles Center
04:07PM 34.3844 -117.5264 118° Southeast 355 409 14,000 -1,140 Descending Los Angeles Center
04:08PM 34.3333 -117.4161 119° Southeast 322 371 12,300 -1,980 Descending Los Angeles Center
04:09PM 34.2675 -117.3250 131° Southeast 300 345 9,500 -2,160 Descending Los Angeles Center
04:10PM 34.1914 -117.2964 163° South 278 320 7,800 -1,680 Descending Los Angeles Center
04:11PM 34.1167 -117.2869 174° South 268 308 6,100 -1,500 Descending Los Angeles Center
04:12PM 34.0678 -117.3506 227° Southwest 269 310 4,800 -1,080 Descending Los Angeles Center
04:13PM 34.0500 -117.4167 252° West 213 245 4,100 -1,260 Descending Southern California TRACON
04:14PM 34.0500 -117.4833 270° West 192 221 2,500 -1,200 Descending Southern California TRACON
04:15PM 34.0500 -117.5500 270° West 135 155 1,600 -840 Descending Southern California TRACON
04:18PM 34.0500 -117.6000 270° West  Level FlightAware Approximate
04:25PM 34.0560 -117.6012 270° West  Level Estimated